Sunday, October 21, 2018, 12:41 PM EDT
Back to Local

KCBE, Cumberland, Greater Cumberland Regional Airport

Location: Wiley Ford, MD, United States Lat: 39.615
Local Time: 12:41 PM EDT (16:41 GMT) Lon: -78.761
Time Zone: US/Eastern Elev: 774 ft

Show me the last for .
Show Decoded

2018-10-21 12:20 METAR KCBE 211620Z AUTO 19004KT 10SM OVC036 06/M01 A3024 RMK AO2 T00611014 =
2018-10-21 12:00 METAR KCBE 211600Z AUTO 29012G22KT 240V310 10SM BKN036 BKN041 OVC047 06/M02
                 A3024 RMK AO2 T00581017 =
2018-10-21 11:40 METAR KCBE 211540Z AUTO 30010KT 10SM BKN034 OVC047 06/M01 A3023 RMK AO2
                 T00591012 =
2018-10-21 11:20 METAR KCBE 211520Z AUTO 32014G20KT 10SM BKN034 OVC048 06/M01 A3023 RMK AO2
                 T00601010 =
2018-10-21 11:00 METAR KCBE 211500Z AUTO 33013G26KT 10SM BKN036 OVC046 06/M01 A3023 RMK AO2
                 T00581014 =
2018-10-21 10:40 METAR KCBE 211440Z AUTO 32014G23KT 10SM BKN034 OVC048 06/M01 A3024 RMK AO2
                 T00561014 =
2018-10-21 10:20 METAR KCBE 211420Z AUTO 31015G22KT 10SM SCT034 SCT043 BKN050 06/M01 A3022 RMK
                 AO2 T00581012 =
2018-10-21 10:00 METAR KCBE 211400Z AUTO 32013G22KT 280V340 10SM SCT034 BKN040 05/M01 A3022 RMK
                 AO2 T00531013 =
2018-10-21 09:40 METAR KCBE 211340Z AUTO 32012G23KT 10SM SCT036 SCT042 SCT050 05/M01 A3021 RMK
                 AO2 T00541013 =
2018-10-21 09:20 METAR KCBE 211320Z AUTO 31012G32KT 280V340 10SM SCT033 SCT050 05/M02 A3020 RMK
                 AO2 T00521016 =
2018-10-21 09:00 METAR KCBE 211300Z AUTO 32017G26KT 10SM SCT033 BKN055 05/M02 A3019 RMK AO2
                 T00511018 =
2018-10-21 08:40 METAR KCBE 211240Z AUTO 33014G21KT 300V360 10SM BKN033 BKN042 BKN055 05/M01
                 A3018 RMK AO2 T00481015 =
2018-10-21 08:20 METAR KCBE 211220Z AUTO 33010G24KT 10SM BKN033 BKN042 OVC060 05/M01 A3017 RMK
                 AO2 T00491015 =
2018-10-21 08:00 METAR KCBE 211200Z AUTO 33015G22KT 10SM BKN031 BKN050 BKN060 05/M01 A3016 RMK
                 AO2 T00481013 =
2018-10-21 07:40 METAR KCBE 211140Z AUTO 31019G26KT 10SM BKN031 BKN060 05/M01 A3015 RMK AO2
                 T00461007 =
2018-10-21 07:20 METAR KCBE 211120Z AUTO 31008G17KT 10SM -DZ SCT019 BKN029 OVC036 04/01 A3014 RMK
                 AO2 T00410007 =
2018-10-21 07:00 METAR KCBE 211100Z AUTO 31006G19KT 10SM BKN029 BKN034 BKN065 05/00 A3012 RMK AO2
                 T00471000 =
2018-10-21 06:40 METAR KCBE 211040Z AUTO 33016G24KT 10SM SCT033 SCT046 SCT065 05/00 A3011 RMK AO2
                 T00471002 =
2018-10-21 06:20 METAR KCBE 211020Z AUTO 33013G21KT 10SM SCT029 SCT045 SCT065 05/00 A3009 RMK AO2
                 T00480001 =
2018-10-21 06:00 METAR KCBE 211000Z AUTO 34012G20KT 10SM SCT029 SCT038 SCT048 05/01 A3007 RMK AO2
                 T00460005 =
2018-10-21 05:40 METAR KCBE 210940Z AUTO 32015G21KT 10SM SCT027 BKN034 OVC048 05/01 A3006 RMK AO2
                 T00470007 =
2018-10-21 05:20 METAR KCBE 210920Z AUTO 33017G24KT 10SM -DZ SCT031 BKN040 BKN048 05/01 A3004 RMK
                 AO2 T00520006 =
2018-10-21 05:00 METAR KCBE 210900Z AUTO 35009G21KT 10SM SCT035 SCT048 05/00 A3002 RMK AO2
                 T00520005 =
2018-10-21 04:40 METAR KCBE 210840Z AUTO 34012G31KT 10SM SCT027 SCT034 SCT060 05/01 A3001 RMK AO2
                 T00510007 =
2018-10-21 04:20 METAR KCBE 210820Z AUTO 33016G23KT 10SM -DZ BKN029 BKN036 BKN060 05/01 A2999 RMK
                 AO2 T00510010 =
2018-10-21 04:00 METAR KCBE 210800Z AUTO 33024G30KT 10SM -RA BKN029 BKN036 OVC050 05/01 A2997 RMK
                 AO2 T00530011 =
2018-10-21 03:40 METAR KCBE 210740Z AUTO 34021G33KT 10SM -RA SCT027 BKN036 OVC090 06/01 A2996 RMK
                 AO2 T00560011 =
2018-10-21 03:20 METAR KCBE 210720Z AUTO 33013G29KT 300V360 10SM -RA SCT025 BKN030 OVC046 05/02
                 A2994 RMK AO2 T00520017 =
2018-10-21 03:00 METAR KCBE 210700Z AUTO 30012G21KT 260V340 10SM -RA OVC027 05/02 A2993 RMK AO2
                 T00510019 =
2018-10-21 02:40 METAR KCBE 210640Z AUTO 29018G32KT 7SM -RA OVC026 05/02 A2991 RMK AO2 T00550018
                 =
2018-10-21 02:20 METAR KCBE 210620Z AUTO 29009G17KT 10SM -RA BKN026 OVC034 06/02 A2990 RMK AO2
                 T00610020 =
2018-10-21 02:00 METAR KCBE 210600Z AUTO 25006KT 10SM -RA SCT033 BKN041 OVC060 07/02 A2989 RMK
                 AO2 T00670015 =
2018-10-21 01:40 METAR KCBE 210540Z AUTO 30015G20KT 10SM -RA SCT038 BKN060 OVC090 07/01 A2987 RMK
                 AO2 T00710011 =
2018-10-21 01:20 METAR KCBE 210520Z AUTO 29012G23KT 260V320 10SM SCT038 BKN060 OVC065 08/01 A2987
                 RMK AO2 T00760007 =
2018-10-21 01:00 METAR KCBE 210500Z AUTO 29016G25KT 10SM SCT038 BKN047 BKN060 08/01 A2987 RMK AO2
                 T00760009 =
2018-10-21 00:40 METAR KCBE 210440Z AUTO 29011G18KT 10SM SCT039 SCT045 SCT120 08/01 A2987 RMK AO2
                 T00750010 =
2018-10-21 00:20 METAR KCBE 210420Z AUTO 30010G21KT 10SM SCT036 SCT043 SCT120 08/01 A2986 RMK AO2
                 T00750012 =
2018-10-21 00:00 METAR KCBE 210400Z AUTO 30011KT 10SM SCT035 07/01 A2986 RMK AO2 T00750013 =
2018-10-20 23:40 METAR KCBE 210340Z AUTO 29006KT 10SM SCT110 07/02 A2985 RMK AO2 T00740018 =
2018-10-20 23:20 METAR KCBE 210320Z AUTO 26003KT 10SM OVC110 08/02 A2985 RMK AO2 T00780021 =
2018-10-20 23:00 METAR KCBE 210300Z AUTO 00000KT 10SM SCT031 SCT070 BKN110 08/02 A2984 RMK AO2
                 T00810019 =
2018-10-20 22:40 METAR KCBE 210240Z AUTO 31011G24KT 280V340 10SM -DZ BKN033 BKN050 BKN075 08/02
                 A2984 RMK AO2 T00810025 =
2018-10-20 22:20 METAR KCBE 210220Z AUTO 35017G32KT 10SM -RA SCT037 BKN049 BKN060 09/03 A2982 RMK
                 AO2 T00900029 =
2018-10-20 22:00 METAR KCBE 210200Z AUTO 31007G18KT 10SM SCT070 SCT080 10/03 A2980 RMK AO2
                 T00970031 =
2018-10-20 21:40 METAR KCBE 210140Z AUTO 20004KT 10SM SCT070 SCT090 08/05 A2979 RMK AO2 =
2018-10-20 21:20 METAR KCBE 210120Z AUTO 00000KT 10SM SCT070 08/05 A2977 RMK AO2 T00800054 =
2018-10-20 21:00 METAR KCBE 210100Z AUTO 15005KT 10SM CLR 07/05 A2976 RMK AO2 T00750052 =
2018-10-20 20:40 METAR KCBE 210040Z AUTO 11004KT 10SM SCT090 SCT120 08/05 A2976 RMK AO2 =
2018-10-20 20:20 METAR KCBE 210020Z AUTO 24004KT 10SM -RA SCT030 BKN060 OVC090 09/05 A2977 RMK
                 AO2 T00890047 =
2018-10-20 20:00 METAR KCBE 210000Z AUTO 30013G33KT 270V340 7SM -RA SCT027 SCT045 BKN050 09/05
                 A2979 RMK AO2 T00920047 =
2018-10-20 19:40 METAR KCBE 202340Z AUTO 28016G22KT 240V300 10SM -RA SCT048 SCT070 BKN090 11/05
                 A2975 RMK AO2 T01120052 =
2018-10-20 19:20 METAR KCBE 202320Z AUTO 22008G23KT 10SM -RA SCT049 BKN055 OVC090 11/05 A2974 RMK
                 AO2 T01110052 =
2018-10-20 18:55 METAR KCBE 202255Z AUTO 28026G31KT 10SM -RA SCT049 SCT075 SCT100 13/04 A2975 RMK
                 AO2 T01300037 =
2018-10-20 18:40 METAR KCBE 202240Z AUTO 18005KT 10SM SCT100 13/06 A2972 RMK AO2 T01290056 =
2018-10-20 18:20 METAR KCBE 202220Z AUTO 22006KT 10SM BKN100 13/05 A2971 RMK AO2 T01340051 =
2018-10-20 18:00 METAR KCBE 202200Z AUTO 21007KT 10SM SCT050 SCT065 BKN100 14/05 A2971 RMK AO2
                 T01420051 =
2018-10-20 17:40 METAR KCBE 202140Z AUTO 22007KT 10SM SCT049 SCT065 SCT100 15/05 A2972 RMK AO2
                 T01540053 =
2018-10-20 17:20 METAR KCBE 202120Z AUTO 23007KT 180V250 10SM CLR 15/04 A2972 RMK AO2 T01520044 =
2018-10-20 17:00 METAR KCBE 202100Z AUTO 27009G19KT 10SM SCT050 SCT060 SCT070 16/05 A2972 RMK AO2
                 T01600046 =
2018-10-20 16:40 METAR KCBE 202040Z AUTO 25008G17KT 200V310 10SM SCT060 BKN070 15/04 A2972 RMK
                 AO2 T01550038 =
2018-10-20 16:20 METAR KCBE 202020Z AUTO 21009KT 150V240 10SM BKN060 BKN070 BKN080 16/04 A2972
                 RMK AO2 T01630043 =
2018-10-20 15:55 METAR KCBE 201955Z AUTO 29010KT 240V330 10SM SCT060 BKN070 16/04 A2974 RMK AO2
                 T01550044 =
2018-10-20 15:40 METAR KCBE 201940Z AUTO 26007G16KT 180V320 10SM BKN080 15/05 A2974 RMK AO2 =
2018-10-20 15:20 METAR KCBE 201920Z AUTO 26013G23KT 220V300 10SM SCT046 SCT050 OVC080 15/05 A2975
                 RMK AO2 T01460049 =
2018-10-20 15:00 METAR KCBE 201900Z AUTO 27003KT 10SM SCT036 BKN050 OVC080 15/06 A2976 RMK AO2
                 T01490064 =
2018-10-20 14:40 METAR KCBE 201840Z AUTO 00000KT 10SM OVC037 14/07 A2977 RMK AO2 T01440071 =
2018-10-20 14:20 METAR KCBE 201820Z AUTO 17006KT 10SM OVC037 14/08 A2978 RMK AO2 T01420078 =
2018-10-20 14:00 METAR KCBE 201800Z AUTO 25005KT 10SM BKN035 OVC042 14/08 A2980 RMK AO2 T01390080
                 =
2018-10-20 13:40 METAR KCBE 201740Z AUTO 19003KT 10SM OVC033 13/08 A2981 RMK AO2 T01350082 =
2018-10-20 13:20 METAR KCBE 201720Z AUTO 22005KT 10SM BKN033 OVC041 14/08 A2982 RMK AO2 T01360082
                 =
2018-10-20 13:00 METAR KCBE 201700Z AUTO 19003KT 10SM SCT031 OVC041 13/09 A2983 RMK AO2 T01320088
                 =

Support USWX by starting your Amazon purchase here.